sensor_id;sensor_type;location;lat;lon;timestamp;pressure;altitude;pressure_sealevel;temperature;humidity
6034;BME280;3045;43.226;27.858;2023-03-14T00:00:49;146450.34;;;1.55;100.00
6034;BME280;3045;43.226;27.858;2023-03-14T00:03:16;146475.47;;;1.65;100.00
6034;BME280;3045;43.226;27.858;2023-03-14T00:05:43;146464.16;;;1.60;100.00
6034;BME280;3045;43.226;27.858;2023-03-14T00:08:12;146460.38;;;1.59;100.00
6034;BME280;3045;43.226;27.858;2023-03-14T00:10:39;146457.88;;;1.58;100.00
6034;BME280;3045;43.226;27.858;2023-03-14T00:13:06;146422.78;;;1.44;100.00
6034;BME280;3045;43.226;27.858;2023-03-14T00:15:33;146429.03;;;1.46;100.00
6034;BME280;3045;43.226;27.858;2023-03-14T00:18:00;146430.28;;;1.47;100.00
6034;BME280;3045;43.226;27.858;2023-03-14T00:20:27;146410.22;;;1.38;100.00
6034;BME280;3045;43.226;27.858;2023-03-14T00:22:54;146416.47;;;1.41;100.00
6034;BME280;3045;43.226;27.858;2023-03-14T00:25:23;146314.91;;;1.00;100.00
6034;BME280;3045;43.226;27.858;2023-03-14T00:27:50;146380.13;;;1.26;100.00
6034;BME280;3045;43.226;27.858;2023-03-14T00:30:17;146402.72;;;1.35;100.00
6034;BME280;3045;43.226;27.858;2023-03-14T00:32:49;146390.16;;;1.30;100.00
6034;BME280;3045;43.226;27.858;2023-03-14T00:35:16;146356.28;;;1.17;100.00
6034;BME280;3045;43.226;27.858;2023-03-14T00:37:43;146271.03;;;0.82;100.00
6034;BME280;3045;43.226;27.858;2023-03-14T00:40:10;146338.75;;;1.10;100.00
6034;BME280;3045;43.226;27.858;2023-03-14T00:42:38;146398.94;;;1.34;100.00
6034;BME280;3045;43.226;27.858;2023-03-14T00:45:06;146405.19;;;1.36;100.00
6034;BME280;3045;43.226;27.858;2023-03-14T00:47:34;146459.13;;;1.58;100.00
6034;BME280;3045;43.226;27.858;2023-03-14T00:50:01;146471.69;;;1.63;100.00
6034;BME280;3045;43.226;27.858;2023-03-14T00:52:28;146509.28;;;1.78;100.00
6034;BME280;3045;43.226;27.858;2023-03-14T00:54:54;146555.75;;;1.97;100.00
6034;BME280;3045;43.226;27.858;2023-03-14T00:57:21;146499.25;;;1.74;100.00
6034;BME280;3045;43.226;27.858;2023-03-14T00:59:50;146559.53;;;1.99;100.00
6034;BME280;3045;43.226;27.858;2023-03-14T01:02:17;146600.94;;;2.15;100.00
6034;BME280;3045;43.226;27.858;2023-03-14T01:04:44;146612.22;;;2.20;100.00
6034;BME280;3045;43.226;27.858;2023-03-14T01:07:13;146544.44;;;1.93;100.00
6034;BME280;3045;43.226;27.858;2023-03-14T01:09:40;146569.56;;;2.03;100.00
6034;BME280;3045;43.226;27.858;2023-03-14T01:12:07;146540.66;;;1.91;100.00
6034;BME280;3045;43.226;27.858;2023-03-14T01:14:34;146560.78;;;1.99;100.00
6034;BME280;3045;43.226;27.858;2023-03-14T01:17:02;146521.84;;;1.83;100.00
6034;BME280;3045;43.226;27.858;2023-03-14T01:19:29;146510.56;;;1.79;100.00
6034;BME280;3045;43.226;27.858;2023-03-14T01:21:56;146540.66;;;1.91;100.00
6034;BME280;3045;43.226;27.858;2023-03-14T01:24:23;146485.50;;;1.69;100.00
6034;BME280;3045;43.226;27.858;2023-03-14T01:26:50;146555.75;;;1.97;100.00
6034;BME280;3045;43.226;27.858;2023-03-14T01:29:17;146504.28;;;1.76;100.00
6034;BME280;3045;43.226;27.858;2023-03-14T01:31:44;146487.97;;;1.70;100.00
6034;BME280;3045;43.226;27.858;2023-03-14T01:34:12;146419.00;;;1.42;100.00
6034;BME280;3045;43.226;27.858;2023-03-14T01:36:39;146395.16;;;1.32;100.00
6034;BME280;3045;43.226;27.858;2023-03-14T01:39:06;146278.53;;;0.85;100.00
6034;BME280;3045;43.226;27.858;2023-03-14T01:41:34;146345.00;;;1.12;100.00
6034;BME280;3045;43.226;27.858;2023-03-14T01:44:01;146341.22;;;1.11;100.00
6034;BME280;3045;43.226;27.858;2023-03-14T01:46:34;146337.50;;;1.09;100.00
6034;BME280;3045;43.226;27.858;2023-03-14T01:49:12;146393.88;;;1.32;100.00
6034;BME280;3045;43.226;27.858;2023-03-14T01:51:44;146352.50;;;1.15;100.00
6034;BME280;3045;43.226;27.858;2023-03-14T01:54:16;146366.31;;;1.21;100.00
6034;BME280;3045;43.226;27.858;2023-03-14T01:56:48;146396.41;;;1.33;100.00
6034;BME280;3045;43.226;27.858;2023-03-14T01:59:17;146420.25;;;1.43;100.00
6034;BME280;3045;43.226;27.858;2023-03-14T02:01:46;146351.25;;;1.15;100.00
6034;BME280;3045;43.226;27.858;2023-03-14T02:04:17;146391.41;;;1.31;100.00
6034;BME280;3045;43.226;27.858;2023-03-14T02:06:50;146362.53;;;1.19;100.00
6034;BME280;3045;43.226;27.858;2023-03-14T02:09:20;146352.50;;;1.15;100.00
6034;BME280;3045;43.226;27.858;2023-03-14T02:11:47;146331.19;;;1.07;100.00
6034;BME280;3045;43.226;27.858;2023-03-14T02:14:25;146347.53;;;1.13;100.00
6034;BME280;3045;43.226;27.858;2023-03-14T02:16:54;146304.88;;;0.96;100.00
6034;BME280;3045;43.226;27.858;2023-03-14T02:19:26;146200.84;;;0.54;100.00
6034;BME280;3045;43.226;27.858;2023-03-14T02:22:02;146332.44;;;1.07;100.00
6034;BME280;3045;43.226;27.858;2023-03-14T02:24:37;146284.81;;;0.88;100.00
6034;BME280;3045;43.226;27.858;2023-03-14T02:27:09;146264.78;;;0.80;100.00
6034;BME280;3045;43.226;27.858;2023-03-14T02:29:41;146219.63;;;0.62;100.00
6034;BME280;3045;43.226;27.858;2023-03-14T02:32:12;146301.09;;;0.95;100.00
6034;BME280;3045;43.226;27.858;2023-03-14T02:34:40;146244.72;;;0.72;100.00
6034;BME280;3045;43.226;27.858;2023-03-14T02:37:09;146258.47;;;0.77;100.00
6034;BME280;3045;43.226;27.858;2023-03-14T02:39:38;146312.38;;;0.99;100.00
6034;BME280;3045;43.226;27.858;2023-03-14T02:42:07;146287.34;;;0.89;100.00
6034;BME280;3045;43.226;27.858;2023-03-14T02:44:34;146312.38;;;0.99;100.00
6034;BME280;3045;43.226;27.858;2023-03-14T02:47:02;146304.88;;;0.96;100.00
6034;BME280;3045;43.226;27.858;2023-03-14T02:49:30;146307.41;;;0.97;100.00
6034;BME280;3045;43.226;27.858;2023-03-14T02:51:58;146317.44;;;1.01;100.00
6034;BME280;3045;43.226;27.858;2023-03-14T02:54:25;146257.22;;;0.77;100.00
6034;BME280;3045;43.226;27.858;2023-03-14T02:56:52;146248.47;;;0.73;100.00
6034;BME280;3045;43.226;27.858;2023-03-14T02:59:20;146217.13;;;0.61;100.00
6034;BME280;3045;43.226;27.858;2023-03-14T03:01:47;146188.31;;;0.49;100.00
6034;BME280;3045;43.226;27.858;2023-03-14T03:04:14;146160.75;;;0.38;100.00
6034;BME280;3045;43.226;27.858;2023-03-14T03:06:40;146179.53;;;0.45;100.00
6034;BME280;3045;43.226;27.858;2023-03-14T03:09:08;146215.84;;;0.60;100.00
6034;BME280;3045;43.226;27.858;2023-03-14T03:11:34;145715.63;;;0.66;100.00
6034;BME280;3045;43.226;27.858;2023-03-14T03:14:01;146256.00;;;0.76;100.00
6034;BME280;3045;43.226;27.858;2023-03-14T03:16:30;146261.00;;;0.78;100.00
6034;BME280;3045;43.226;27.858;2023-03-14T03:18:56;146288.56;;;0.89;100.00
6034;BME280;3045;43.226;27.858;2023-03-14T03:21:23;146309.88;;;0.98;100.00
6034;BME280;3045;43.226;27.858;2023-03-14T03:23:50;146254.75;;;0.76;100.00
6034;BME280;3045;43.226;27.858;2023-03-14T03:26:17;146243.47;;;0.71;100.00
6034;BME280;3045;43.226;27.858;2023-03-14T03:28:44;146282.31;;;0.87;100.00
6034;BME280;3045;43.226;27.858;2023-03-14T03:31:11;146267.25;;;0.81;100.00
6034;BME280;3045;43.226;27.858;2023-03-14T03:33:40;146276.06;;;0.84;100.00
6034;BME280;3045;43.226;27.858;2023-03-14T03:36:08;146258.47;;;0.77;100.00
6034;BME280;3045;43.226;27.858;2023-03-14T03:38:35;146212.13;;;0.59;100.00
6034;BME280;3045;43.226;27.858;2023-03-14T03:41:04;146129.44;;;0.25;100.00
6034;BME280;3045;43.226;27.858;2023-03-14T03:43:31;146120.63;;;0.22;100.00
6034;BME280;3045;43.226;27.858;2023-03-14T03:45:59;146055.53;;;-0.05;100.00
6034;BME280;3045;43.226;27.858;2023-03-14T03:48:28;146096.84;;;0.12;100.00
6034;BME280;3045;43.226;27.858;2023-03-14T03:50:57;146156.97;;;0.36;100.00
6034;BME280;3045;43.226;27.858;2023-03-14T03:53:24;146119.38;;;0.21;100.00
6034;BME280;3045;43.226;27.858;2023-03-14T03:55:50;146128.16;;;0.25;100.00
6034;BME280;3045;43.226;27.858;2023-03-14T03:58:17;146071.78;;;0.02;100.00
6034;BME280;3045;43.226;27.858;2023-03-14T04:00:44;146051.75;;;-0.06;100.00
6034;BME280;3045;43.226;27.858;2023-03-14T04:03:11;146061.75;;;-0.02;100.00
6034;BME280;3045;43.226;27.858;2023-03-14T04:05:38;145990.38;;;-0.31;100.00
6034;BME280;3045;43.226;27.858;2023-03-14T04:08:06;146019.16;;;-0.19;100.00
6034;BME280;3045;43.226;27.858;2023-03-14T04:10:34;145517.38;;;-0.18;100.00
6034;BME280;3045;43.226;27.858;2023-03-14T04:13:01;139837.16;;;-0.13;100.00
6034;BME280;3045;43.226;27.858;2023-03-14T04:15:28;136024.72;;;-0.13;100.00
6034;BME280;3045;43.226;27.858;2023-03-14T04:17:56;132757.84;;;0.07;100.00
6034;BME280;3045;43.226;27.858;2023-03-14T04:20:23;136508.34;;;0.06;100.00
6034;BME280;3045;43.226;27.858;2023-03-14T04:22:50;138306.44;;;0.09;100.00
6034;BME280;3045;43.226;27.858;2023-03-14T04:25:18;135574.53;;;0.13;100.00
6034;BME280;3045;43.226;27.858;2023-03-14T04:27:46;135493.31;;;0.11;100.00
6034;BME280;3045;43.226;27.858;2023-03-14T04:30:13;136071.16;;;-0.27;100.00
6034;BME280;3045;43.226;27.858;2023-03-14T04:32:40;129172.34;;;-0.09;100.00
6034;BME280;3045;43.226;27.858;2023-03-14T04:35:07;130321.13;;;-0.15;100.00
6034;BME280;3045;43.226;27.858;2023-03-14T04:37:34;127746.09;;;-0.25;100.00
6034;BME280;3045;43.226;27.858;2023-03-14T04:40:02;122173.28;;;0.07;100.00
6034;BME280;3045;43.226;27.858;2023-03-14T04:42:33;121719.59;;;0.48;100.00
6034;BME280;3045;43.226;27.858;2023-03-14T04:44:59;130417.38;;;0.44;100.00
6034;BME280;3045;43.226;27.858;2023-03-14T04:47:26;135937.38;;;0.59;100.00
6034;BME280;3045;43.226;27.858;2023-03-14T04:49:54;142146.03;;;0.61;100.00
6034;BME280;3045;43.226;27.858;2023-03-14T04:52:20;146118.94;;;0.74;100.00
6034;BME280;3045;43.226;27.858;2023-03-14T04:54:47;146272.28;;;0.83;100.00
6034;BME280;3045;43.226;27.858;2023-03-14T04:57:14;146393.88;;;1.32;100.00
6034;BME280;3045;43.226;27.858;2023-03-14T04:59:42;140964.47;;;1.76;100.00
6034;BME280;3045;43.226;27.858;2023-03-14T05:02:09;137207.41;;;2.28;100.00
6034;BME280;3045;43.226;27.858;2023-03-14T05:04:36;145811.00;;;3.30;100.00
6034;BME280;3045;43.226;27.858;2023-03-14T05:07:03;147183.84;;;4.50;100.00
6034;BME280;3045;43.226;27.858;2023-03-14T05:09:31;147478.34;;;5.68;100.00
6034;BME280;3045;43.226;27.858;2023-03-14T05:11:58;147682.38;;;6.50;100.00
6034;BME280;3045;43.226;27.858;2023-03-14T05:14:25;147868.91;;;7.25;100.00
6034;BME280;3045;43.226;27.858;2023-03-14T05:16:53;147959.66;;;7.61;100.00
6034;BME280;3045;43.226;27.858;2023-03-14T05:19:20;148082.03;;;8.10;100.00
6034;BME280;3045;43.226;27.858;2023-03-14T05:21:47;148218.34;;;8.65;100.00
6034;BME280;3045;43.226;27.858;2023-03-14T05:24:14;148307.94;;;9.01;100.00
6034;BME280;3045;43.226;27.858;2023-03-14T05:26:41;148336.97;;;9.12;100.00
6034;BME280;3045;43.226;27.858;2023-03-14T05:29:07;148325.63;;;9.08;100.00
6034;BME280;3045;43.226;27.858;2023-03-14T05:31:34;148253.66;;;8.79;100.00
6034;BME280;3045;43.226;27.858;2023-03-14T05:34:03;148393.81;;;9.35;100.00
6034;BME280;3045;43.226;27.858;2023-03-14T05:36:29;148492.31;;;9.75;100.00
6034;BME280;3045;43.226;27.858;2023-03-14T05:38:56;148649.03;;;10.37;100.00
6034;BME280;3045;43.226;27.858;2023-03-14T05:41:23;148678.09;;;10.49;100.00
6034;BME280;3045;43.226;27.858;2023-03-14T05:43:50;148735.00;;;10.72;100.00
6034;BME280;3045;43.226;27.858;2023-03-14T05:46:17;148726.16;;;10.68;100.00
6034;BME280;3045;43.226;27.858;2023-03-14T05:48:44;148697.03;;;10.57;100.00
6034;BME280;3045;43.226;27.858;2023-03-14T05:51:12;148578.25;;;10.09;100.00
6034;BME280;3045;43.226;27.858;2023-03-14T05:53:39;148493.59;;;9.75;100.00
6034;BME280;3045;43.226;27.858;2023-03-14T05:56:07;148366.03;;;9.24;100.00
6034;BME280;3045;43.226;27.858;2023-03-14T05:58:34;148300.38;;;8.98;100.00
6034;BME280;3045;43.226;27.858;2023-03-14T06:01:02;148232.19;;;8.70;100.00
6034;BME280;3045;43.226;27.858;2023-03-14T06:03:29;148172.91;;;8.47;100.00
6034;BME280;3045;43.226;27.858;2023-03-14T06:05:56;148123.66;;;8.27;100.00
6034;BME280;3045;43.226;27.858;2023-03-14T06:08:24;148212.00;;;8.62;100.00
6034;BME280;3045;43.226;27.858;2023-03-14T06:10:51;148294.09;;;8.95;100.00
6034;BME280;3045;43.226;27.858;2023-03-14T06:13:19;148339.50;;;9.13;100.00
6034;BME280;3045;43.226;27.858;2023-03-14T06:15:46;148416.53;;;9.44;100.00
6034;BME280;3045;43.226;27.858;2023-03-14T06:18:13;148510.00;;;9.82;100.00
6034;BME280;3045;43.226;27.858;2023-03-14T06:20:40;148633.84;;;10.31;100.00
6034;BME280;3045;43.226;27.858;2023-03-14T06:23:08;148799.47;;;10.97;100.00
6034;BME280;3045;43.226;27.858;2023-03-14T06:25:37;149005.66;;;11.80;100.00
6034;BME280;3045;43.226;27.858;2023-03-14T06:28:04;149300.66;;;12.98;97.38
6034;BME280;3045;43.226;27.858;2023-03-14T06:30:31;149555.34;;;13.99;87.57
6034;BME280;3045;43.226;27.858;2023-03-14T06:33:01;149650.47;;;14.37;80.12
6034;BME280;3045;43.226;27.858;2023-03-14T06:35:28;149726.56;;;14.68;76.93
6034;BME280;3045;43.226;27.858;2023-03-14T06:37:58;149718.91;;;14.64;79.79
6034;BME280;3045;43.226;27.858;2023-03-14T06:40:24;149740.47;;;14.73;77.19
6034;BME280;3045;43.226;27.858;2023-03-14T06:42:53;149724.00;;;14.67;78.21
6034;BME280;3045;43.226;27.858;2023-03-14T06:45:19;149852.13;;;15.18;77.28
6034;BME280;3045;43.226;27.858;2023-03-14T06:47:47;149915.53;;;15.43;73.46
6034;BME280;3045;43.226;27.858;2023-03-14T06:50:14;149930.75;;;15.49;70.67
6034;BME280;3045;43.226;27.858;2023-03-14T06:52:41;150024.75;;;15.86;69.68
6034;BME280;3045;43.226;27.858;2023-03-14T06:55:13;149873.69;;;15.26;70.58
6034;BME280;3045;43.226;27.858;2023-03-14T06:57:40;149876.22;;;15.27;72.15
6034;BME280;3045;43.226;27.858;2023-03-14T07:00:10;149829.28;;;15.08;73.47
6034;BME280;3045;43.226;27.858;2023-03-14T07:02:37;149880.00;;;15.29;75.16
6034;BME280;3045;43.226;27.858;2023-03-14T07:05:05;149760.75;;;14.81;77.76
6034;BME280;3045;43.226;27.858;2023-03-14T07:07:32;149730.31;;;14.69;77.67
6034;BME280;3045;43.226;27.858;2023-03-14T07:10:01;149694.84;;;14.55;79.27
6034;BME280;3045;43.226;27.858;2023-03-14T07:12:27;149543.94;;;13.95;84.89
6034;BME280;3045;43.226;27.858;2023-03-14T07:14:54;149659.34;;;14.41;82.00
6034;BME280;3045;43.226;27.858;2023-03-14T07:17:22;149663.16;;;14.42;80.62
6034;BME280;3045;43.226;27.858;2023-03-14T07:19:49;149462.81;;;13.62;87.25
6034;BME280;3045;43.226;27.858;2023-03-14T07:22:16;149432.41;;;13.50;90.13
6034;BME280;3045;43.226;27.858;2023-03-14T07:24:43;149489.44;;;13.73;90.52
6034;BME280;3045;43.226;27.858;2023-03-14T07:27:10;149597.19;;;14.16;87.15
6034;BME280;3045;43.226;27.858;2023-03-14T07:29:37;149583.22;;;14.10;84.95
6034;BME280;3045;43.226;27.858;2023-03-14T07:32:04;149722.72;;;14.66;82.42
6034;BME280;3045;43.226;27.858;2023-03-14T07:34:34;149721.47;;;14.66;82.58
6034;BME280;3045;43.226;27.858;2023-03-14T07:37:01;149868.59;;;15.24;74.61
6034;BME280;3045;43.226;27.858;2023-03-14T07:39:30;149926.97;;;15.47;71.98
6034;BME280;3045;43.226;27.858;2023-03-14T07:41:57;149914.28;;;15.42;71.34
6034;BME280;3045;43.226;27.858;2023-03-14T07:44:25;149954.91;;;15.59;71.56
6034;BME280;3045;43.226;27.858;2023-03-14T07:46:54;149933.34;;;15.50;72.29
6034;BME280;3045;43.226;27.858;2023-03-14T07:49:21;149951.13;;;15.57;70.23
6034;BME280;3045;43.226;27.858;2023-03-14T07:51:49;149946.03;;;15.55;72.47
6034;BME280;3045;43.226;27.858;2023-03-14T07:54:18;149797.56;;;14.96;77.08
6034;BME280;3045;43.226;27.858;2023-03-14T07:56:48;149828.00;;;15.08;74.63
6034;BME280;3045;43.226;27.858;2023-03-14T07:59:15;149822.94;;;15.06;76.69
6034;BME280;3045;43.226;27.858;2023-03-14T08:01:42;149731.59;;;14.70;79.14
6034;BME280;3045;43.226;27.858;2023-03-14T08:04:09;149674.56;;;14.47;79.75
6034;BME280;3045;43.226;27.858;2023-03-14T08:06:36;149495.75;;;13.76;88.86
6034;BME280;3045;43.226;27.858;2023-03-14T08:09:05;149438.78;;;13.53;92.96
6034;BME280;3045;43.226;27.858;2023-03-14T08:11:32;149423.53;;;13.47;96.05
6034;BME280;3045;43.226;27.858;2023-03-14T08:13:59;149418.50;;;13.45;98.95
6034;BME280;3045;43.226;27.858;2023-03-14T08:16:26;149230.97;;;12.70;100.00
6034;BME280;3045;43.226;27.858;2023-03-14T08:18:52;149056.31;;;12.00;100.00
6034;BME280;3045;43.226;27.858;2023-03-14T08:21:19;149061.34;;;12.02;100.00
6034;BME280;3045;43.226;27.858;2023-03-14T08:23:46;149134.75;;;12.31;100.00
6034;BME280;3045;43.226;27.858;2023-03-14T08:26:15;149048.69;;;11.97;100.00
6034;BME280;3045;43.226;27.858;2023-03-14T08:28:42;149138.56;;;12.33;100.00
6034;BME280;3045;43.226;27.858;2023-03-14T08:31:08;149244.91;;;12.75;100.00
6034;BME280;3045;43.226;27.858;2023-03-14T08:33:37;149442.53;;;13.54;100.00
6034;BME280;3045;43.226;27.858;2023-03-14T08:36:05;149547.72;;;13.96;95.55
6034;BME280;3045;43.226;27.858;2023-03-14T08:38:34;149568.03;;;14.04;91.30
6034;BME280;3045;43.226;27.858;2023-03-14T08:41:02;149469.19;;;13.65;91.84
6034;BME280;3045;43.226;27.858;2023-03-14T08:43:31;149622.50;;;14.26;90.49
6034;BME280;3045;43.226;27.858;2023-03-14T08:45:59;149513.53;;;13.83;86.35
6034;BME280;3045;43.226;27.858;2023-03-14T08:48:27;149322.19;;;13.06;97.42
6034;BME280;3045;43.226;27.858;2023-03-14T08:50:55;149299.38;;;12.97;100.00
6034;BME280;3045;43.226;27.858;2023-03-14T08:53:22;149325.94;;;13.08;100.00
6034;BME280;3045;43.226;27.858;2023-03-14T08:55:52;149345.00;;;13.15;96.49
6034;BME280;3045;43.226;27.858;2023-03-14T08:58:20;149358.94;;;13.21;98.38
6034;BME280;3045;43.226;27.858;2023-03-14T09:00:51;149253.78;;;12.79;100.00
6034;BME280;3045;43.226;27.858;2023-03-14T09:03:30;149393.16;;;13.35;95.47
6034;BME280;3045;43.226;27.858;2023-03-14T09:06:02;149400.72;;;13.38;90.07
6034;BME280;3045;43.226;27.858;2023-03-14T09:08:30;149508.44;;;13.81;90.71
6034;BME280;3045;43.226;27.858;2023-03-14T09:10:57;149388.06;;;13.33;84.92
6034;BME280;3045;43.226;27.858;2023-03-14T09:13:24;149466.63;;;13.64;87.58
6034;BME280;3045;43.226;27.858;2023-03-14T09:15:52;149410.88;;;13.42;93.62
6034;BME280;3045;43.226;27.858;2023-03-14T09:18:20;149347.53;;;13.16;92.49
6034;BME280;3045;43.226;27.858;2023-03-14T09:20:47;149317.09;;;13.04;96.99
6034;BME280;3045;43.226;27.858;2023-03-14T09:23:14;149465.34;;;13.63;92.49
6034;BME280;3045;43.226;27.858;2023-03-14T09:25:41;149744.28;;;14.75;82.49
6034;BME280;3045;43.226;27.858;2023-03-14T09:28:08;149821.66;;;15.05;72.66
6034;BME280;3045;43.226;27.858;2023-03-14T09:30:35;149901.56;;;15.37;73.96
6034;BME280;3045;43.226;27.858;2023-03-14T09:33:03;149768.41;;;14.84;77.05
6034;BME280;3045;43.226;27.858;2023-03-14T09:35:30;149570.53;;;14.05;85.77
6034;BME280;3045;43.226;27.858;2023-03-14T09:37:59;149668.19;;;14.44;84.50
6034;BME280;3045;43.226;27.858;2023-03-14T09:40:31;149744.28;;;14.75;82.33
6034;BME280;3045;43.226;27.858;2023-03-14T09:43:00;149579.41;;;14.09;89.88
6034;BME280;3045;43.226;27.858;2023-03-14T09:45:29;149673.31;;;14.46;91.24
6034;BME280;3045;43.226;27.858;2023-03-14T09:47:58;149848.28;;;15.16;79.93
6034;BME280;3045;43.226;27.858;2023-03-14T09:50:33;149740.47;;;14.73;81.51
6034;BME280;3045;43.226;27.858;2023-03-14T09:53:06;149639.00;;;14.33;88.68
6034;BME280;3045;43.226;27.858;2023-03-14T09:55:35;149614.91;;;14.23;88.07
6034;BME280;3045;43.226;27.858;2023-03-14T09:58:09;149654.25;;;14.39;85.33
6034;BME280;3045;43.226;27.858;2023-03-14T10:00:38;149651.75;;;14.38;88.62
6034;BME280;3045;43.226;27.858;2023-03-14T10:03:21;149755.72;;;14.79;86.35
6034;BME280;3045;43.226;27.858;2023-03-14T10:05:50;149672.03;;;14.46;82.00
6034;BME280;3045;43.226;27.858;2023-03-14T10:08:20;149745.56;;;14.75;82.16
6034;BME280;3045;43.226;27.858;2023-03-14T10:10:47;149781.09;;;14.89;80.13
6034;BME280;3045;43.226;27.858;2023-03-14T10:13:20;149641.56;;;14.34;85.63
6034;BME280;3045;43.226;27.858;2023-03-14T10:15:52;149527.44;;;13.88;87.05
6034;BME280;3045;43.226;27.858;2023-03-14T10:18:20;149715.13;;;14.63;nan
6034;BME280;3045;43.226;27.858;2023-03-14T10:21:03;149793.75;;;14.94;81.25
6034;BME280;3045;43.226;27.858;2023-03-14T10:23:34;149805.16;;;14.99;76.89
6034;BME280;3045;43.226;27.858;2023-03-14T10:26:12;149641.56;;;14.34;80.72
6034;BME280;3045;43.226;27.858;2023-03-14T10:28:43;149767.13;;;14.84;73.62
6034;BME280;3045;43.226;27.858;2023-03-14T10:31:10;150038.66;;;15.92;70.72
6034;BME280;3045;43.226;27.858;2023-03-14T10:33:38;150022.19;;;15.85;66.27
6034;BME280;3045;43.226;27.858;2023-03-14T10:36:17;149932.00;;;15.49;65.63
6034;BME280;3045;43.226;27.858;2023-03-14T10:38:46;149966.34;;;15.63;67.75
6034;BME280;3045;43.226;27.858;2023-03-14T10:41:17;150057.75;;;15.99;68.28
6034;BME280;3045;43.226;27.858;2023-03-14T10:43:50;149954.91;;;15.59;65.03
6034;BME280;3045;43.226;27.858;2023-03-14T10:46:18;149963.78;;;15.62;59.55
6034;BME280;3045;43.226;27.858;2023-03-14T10:48:46;150199.91;;;16.56;61.66
6034;BME280;3045;43.226;27.858;2023-03-14T10:51:24;150367.63;;;17.23;60.12
6034;BME280;3045;43.226;27.858;2023-03-14T10:53:56;150535.47;;;17.90;56.84
6034;BME280;3045;43.226;27.858;2023-03-14T10:56:25;150304.09;;;16.98;58.95
6034;BME280;3045;43.226;27.858;2023-03-14T10:58:57;149986.63;;;15.71;67.21
6034;BME280;3045;43.226;27.858;2023-03-14T11:01:32;150116.13;;;16.23;57.92
6034;BME280;3045;43.226;27.858;2023-03-14T11:04:14;150058.97;;;16.00;60.33
6034;BME280;3045;43.226;27.858;2023-03-14T11:06:48;149941.00;;;15.53;67.75
6034;BME280;3045;43.226;27.858;2023-03-14T11:09:25;150244.41;;;16.74;61.37
6034;BME280;3045;43.226;27.858;2023-03-14T11:12:00;150478.25;;;17.67;53.51
6034;BME280;3045;43.226;27.858;2023-03-14T11:14:35;150513.84;;;17.81;50.97
6034;BME280;3045;43.226;27.858;2023-03-14T11:17:13;150436.25;;;17.50;52.28
6034;BME280;3045;43.226;27.858;2023-03-14T11:19:56;150318.09;;;17.03;54.51
6034;BME280;3045;43.226;27.858;2023-03-14T11:22:39;149806.44;;;14.99;61.71
6034;BME280;3045;43.226;27.858;2023-03-14T11:25:18;149565.50;;;14.03;66.99
6034;BME280;3045;43.226;27.858;2023-03-14T11:27:56;149339.94;;;13.13;75.48
6034;BME280;3045;43.226;27.858;2023-03-14T11:30:37;149089.22;;;12.13;85.49
6034;BME280;3045;43.226;27.858;2023-03-14T11:33:13;149057.59;;;12.01;87.41
6034;BME280;3045;43.226;27.858;2023-03-14T11:35:47;148888.03;;;11.33;87.27
6034;BME280;3045;43.226;27.858;2023-03-14T11:38:26;148870.28;;;11.26;86.75
6034;BME280;3045;43.226;27.858;2023-03-14T11:40:56;148815.91;;;11.04;87.68
6034;BME280;3045;43.226;27.858;2023-03-14T11:43:28;148646.50;;;10.36;100.00
6034;BME280;3045;43.226;27.858;2023-03-14T11:46:01;148588.34;;;10.13;100.00
6034;BME280;3045;43.226;27.858;2023-03-14T11:48:37;148628.81;;;10.29;100.00
6034;BME280;3045;43.226;27.858;2023-03-14T11:51:09;148679.38;;;10.49;100.00
6034;BME280;3045;43.226;27.858;2023-03-14T11:53:50;148637.66;;;10.33;100.00
6034;BME280;3045;43.226;27.858;2023-03-14T11:56:25;148607.34;;;10.21;100.00
6034;BME280;3045;43.226;27.858;2023-03-14T11:58:58;148616.19;;;10.24;100.00
6034;BME280;3045;43.226;27.858;2023-03-14T12:01:32;148585.81;;;10.12;100.00
6034;BME280;3045;43.226;27.858;2023-03-14T12:04:07;148673.06;;;10.47;100.00
6034;BME280;3045;43.226;27.858;2023-03-14T12:06:41;148603.53;;;10.19;100.00
6034;BME280;3045;43.226;27.858;2023-03-14T12:09:12;148585.81;;;10.12;100.00
6034;BME280;3045;43.226;27.858;2023-03-14T12:11:43;148498.63;;;9.77;100.00
6034;BME280;3045;43.226;27.858;2023-03-14T12:14:20;148560.50;;;10.02;100.00
6034;BME280;3045;43.226;27.858;2023-03-14T12:16:49;148574.44;;;10.07;100.00
6034;BME280;3045;43.226;27.858;2023-03-14T12:19:28;148565.59;;;10.04;100.00
6034;BME280;3045;43.226;27.858;2023-03-14T12:22:00;148646.50;;;10.36;95.20
6034;BME280;3045;43.226;27.858;2023-03-14T12:24:33;148593.41;;;10.15;92.45
6034;BME280;3045;43.226;27.858;2023-03-14T12:27:02;148613.63;;;10.23;100.00
6034;BME280;3045;43.226;27.858;2023-03-14T12:29:30;148649.03;;;10.37;100.00
6034;BME280;3045;43.226;27.858;2023-03-14T12:32:09;148547.91;;;9.97;100.00
6034;BME280;3045;43.226;27.858;2023-03-14T12:34:39;148571.88;;;10.06;100.00
6034;BME280;3045;43.226;27.858;2023-03-14T12:37:19;148555.50;;;10.00;100.00
6034;BME280;3045;43.226;27.858;2023-03-14T12:39:58;148517.56;;;9.85;100.00
6034;BME280;3045;43.226;27.858;2023-03-14T12:42:43;148520.09;;;9.86;100.00
6034;BME280;3045;43.226;27.858;2023-03-14T12:45:22;148443.03;;;9.55;100.00
6034;BME280;3045;43.226;27.858;2023-03-14T12:48:07;148451.91;;;9.58;100.00
6034;BME280;3045;43.226;27.858;2023-03-14T12:50:40;148464.50;;;9.63;100.00
6034;BME280;3045;43.226;27.858;2023-03-14T12:56:22;148456.94;;;9.60;100.00
6034;BME280;3045;43.226;27.858;2023-03-14T12:59:04;148414.00;;;9.43;100.00
6034;BME280;3045;43.226;27.858;2023-03-14T13:01:33;148396.34;;;9.36;100.00
6034;BME280;3045;43.226;27.858;2023-03-14T13:04:04;148387.50;;;9.33;100.00
6034;BME280;3045;43.226;27.858;2023-03-14T13:06:51;148267.56;;;8.85;100.00
6034;BME280;3045;43.226;27.858;2023-03-14T13:09:48;148355.94;;;9.20;100.00
6034;BME280;3045;43.226;27.858;2023-03-14T13:12:23;148334.47;;;9.11;100.00